sensor_id;sensor_type;location;lat;lon;timestamp;P1;durP1;ratioP1;P2;durP2;ratioP2
12925;SDS011;6529;50.566;9.774;2023-07-02T00:01:03;6.30;;;5.70;;
12925;SDS011;6529;50.566;9.774;2023-07-02T00:03:29;5.90;;;5.40;;
12925;SDS011;6529;50.566;9.774;2023-07-02T00:05:54;6.10;;;5.57;;
12925;SDS011;6529;50.566;9.774;2023-07-02T00:08:21;7.03;;;5.40;;
12925;SDS011;6529;50.566;9.774;2023-07-02T00:10:47;5.83;;;5.33;;
12925;SDS011;6529;50.566;9.774;2023-07-02T00:13:13;7.00;;;5.90;;
12925;SDS011;6529;50.566;9.774;2023-07-02T00:15:40;6.00;;;5.50;;
12925;SDS011;6529;50.566;9.774;2023-07-02T00:18:05;6.20;;;5.60;;
12925;SDS011;6529;50.566;9.774;2023-07-02T00:20:32;6.57;;;5.40;;
12925;SDS011;6529;50.566;9.774;2023-07-02T00:23:02;5.80;;;5.10;;
12925;SDS011;6529;50.566;9.774;2023-07-02T00:25:28;5.20;;;4.70;;
12925;SDS011;6529;50.566;9.774;2023-07-02T00:27:54;8.00;;;4.43;;
12925;SDS011;6529;50.566;9.774;2023-07-02T00:30:19;5.37;;;4.63;;
12925;SDS011;6529;50.566;9.774;2023-07-02T00:32:45;4.93;;;4.20;;
12925;SDS011;6529;50.566;9.774;2023-07-02T00:35:11;4.50;;;4.10;;
12925;SDS011;6529;50.566;9.774;2023-07-02T00:37:36;4.20;;;3.77;;
12925;SDS011;6529;50.566;9.774;2023-07-02T00:40:02;5.53;;;4.10;;
12925;SDS011;6529;50.566;9.774;2023-07-02T00:42:28;5.27;;;3.90;;
12925;SDS011;6529;50.566;9.774;2023-07-02T00:44:55;6.03;;;4.10;;
12925;SDS011;6529;50.566;9.774;2023-07-02T00:47:22;4.53;;;4.10;;
12925;SDS011;6529;50.566;9.774;2023-07-02T00:49:48;6.43;;;4.50;;
12925;SDS011;6529;50.566;9.774;2023-07-02T00:52:15;6.40;;;4.00;;
12925;SDS011;6529;50.566;9.774;2023-07-02T00:54:43;4.23;;;3.83;;
12925;SDS011;6529;50.566;9.774;2023-07-02T00:57:09;4.83;;;4.13;;
12925;SDS011;6529;50.566;9.774;2023-07-02T00:59:34;4.40;;;4.10;;
12925;SDS011;6529;50.566;9.774;2023-07-02T01:02:00;6.83;;;4.23;;
12925;SDS011;6529;50.566;9.774;2023-07-02T01:04:27;6.73;;;5.00;;
12925;SDS011;6529;50.566;9.774;2023-07-02T01:06:52;5.20;;;4.40;;
12925;SDS011;6529;50.566;9.774;2023-07-02T01:09:22;5.30;;;4.33;;
12925;SDS011;6529;50.566;9.774;2023-07-02T01:11:53;4.50;;;4.10;;
12925;SDS011;6529;50.566;9.774;2023-07-02T01:14:34;6.13;;;4.23;;
12925;SDS011;6529;50.566;9.774;2023-07-02T01:17:06;6.00;;;4.13;;
12925;SDS011;6529;50.566;9.774;2023-07-02T01:19:44;5.80;;;4.30;;
12925;SDS011;6529;50.566;9.774;2023-07-02T01:22:21;6.27;;;4.00;;
12925;SDS011;6529;50.566;9.774;2023-07-02T01:24:50;5.00;;;4.20;;
12925;SDS011;6529;50.566;9.774;2023-07-02T01:27:16;7.37;;;4.30;;
12925;SDS011;6529;50.566;9.774;2023-07-02T01:29:42;6.67;;;4.10;;
12925;SDS011;6529;50.566;9.774;2023-07-02T01:32:11;5.77;;;4.20;;
12925;SDS011;6529;50.566;9.774;2023-07-02T01:34:38;5.00;;;3.90;;
12925;SDS011;6529;50.566;9.774;2023-07-02T01:37:04;5.20;;;3.47;;
12925;SDS011;6529;50.566;9.774;2023-07-02T01:39:29;7.83;;;3.57;;
12925;SDS011;6529;50.566;9.774;2023-07-02T01:42:07;10.00;;;3.90;;
12925;SDS011;6529;50.566;9.774;2023-07-02T01:44:32;7.07;;;3.90;;
12925;SDS011;6529;50.566;9.774;2023-07-02T01:46:58;6.60;;;4.10;;
12925;SDS011;6529;50.566;9.774;2023-07-02T01:49:24;6.07;;;3.80;;
12925;SDS011;6529;50.566;9.774;2023-07-02T01:51:53;6.83;;;4.00;;
12925;SDS011;6529;50.566;9.774;2023-07-02T01:54:21;4.43;;;3.60;;
12925;SDS011;6529;50.566;9.774;2023-07-02T01:56:48;5.30;;;3.70;;
12925;SDS011;6529;50.566;9.774;2023-07-02T01:59:14;4.93;;;4.00;;
12925;SDS011;6529;50.566;9.774;2023-07-02T02:01:40;7.93;;;3.67;;
12925;SDS011;6529;50.566;9.774;2023-07-02T02:04:06;4.00;;;3.60;;
12925;SDS011;6529;50.566;9.774;2023-07-02T02:06:32;3.73;;;3.43;;
12925;SDS011;6529;50.566;9.774;2023-07-02T02:08:58;4.10;;;3.70;;
12925;SDS011;6529;50.566;9.774;2023-07-02T02:11:24;6.33;;;3.93;;
12925;SDS011;6529;50.566;9.774;2023-07-02T02:13:51;6.93;;;3.77;;
12925;SDS011;6529;50.566;9.774;2023-07-02T02:16:17;7.70;;;4.20;;
12925;SDS011;6529;50.566;9.774;2023-07-02T02:18:43;7.83;;;4.30;;
12925;SDS011;6529;50.566;9.774;2023-07-02T02:21:08;5.23;;;4.60;;
12925;SDS011;6529;50.566;9.774;2023-07-02T02:23:34;7.57;;;5.00;;
12925;SDS011;6529;50.566;9.774;2023-07-02T02:26:00;6.10;;;4.60;;
12925;SDS011;6529;50.566;9.774;2023-07-02T02:28:25;7.90;;;4.67;;
12925;SDS011;6529;50.566;9.774;2023-07-02T02:30:51;5.77;;;4.40;;
12925;SDS011;6529;50.566;9.774;2023-07-02T02:33:16;5.17;;;4.67;;
12925;SDS011;6529;50.566;9.774;2023-07-02T02:35:42;6.40;;;4.60;;
12925;SDS011;6529;50.566;9.774;2023-07-02T02:38:08;5.37;;;4.53;;
12925;SDS011;6529;50.566;9.774;2023-07-02T02:40:33;5.80;;;4.50;;
12925;SDS011;6529;50.566;9.774;2023-07-02T02:42:59;6.60;;;4.57;;
12925;SDS011;6529;50.566;9.774;2023-07-02T02:45:25;7.23;;;4.40;;
12925;SDS011;6529;50.566;9.774;2023-07-02T02:47:51;5.17;;;4.40;;
12925;SDS011;6529;50.566;9.774;2023-07-02T02:50:16;5.30;;;4.90;;
12925;SDS011;6529;50.566;9.774;2023-07-02T02:52:42;6.60;;;5.00;;
12925;SDS011;6529;50.566;9.774;2023-07-02T02:55:09;9.60;;;5.13;;
12925;SDS011;6529;50.566;9.774;2023-07-02T02:57:35;5.60;;;4.70;;
12925;SDS011;6529;50.566;9.774;2023-07-02T03:00:01;4.83;;;4.43;;
12925;SDS011;6529;50.566;9.774;2023-07-02T03:02:27;5.20;;;4.70;;
12925;SDS011;6529;50.566;9.774;2023-07-02T03:04:53;6.67;;;4.50;;
12925;SDS011;6529;50.566;9.774;2023-07-02T03:07:19;8.13;;;4.87;;
12925;SDS011;6529;50.566;9.774;2023-07-02T03:09:44;5.60;;;4.60;;
12925;SDS011;6529;50.566;9.774;2023-07-02T03:12:10;7.83;;;4.80;;
12925;SDS011;6529;50.566;9.774;2023-07-02T03:14:35;7.63;;;4.93;;
12925;SDS011;6529;50.566;9.774;2023-07-02T03:17:01;5.87;;;5.00;;
12925;SDS011;6529;50.566;9.774;2023-07-02T03:19:28;7.20;;;4.80;;
12925;SDS011;6529;50.566;9.774;2023-07-02T03:21:53;7.47;;;5.10;;
12925;SDS011;6529;50.566;9.774;2023-07-02T03:24:19;6.90;;;5.37;;
12925;SDS011;6529;50.566;9.774;2023-07-02T03:26:45;5.87;;;4.83;;
12925;SDS011;6529;50.566;9.774;2023-07-02T03:29:10;7.23;;;4.90;;
12925;SDS011;6529;50.566;9.774;2023-07-02T03:31:36;7.23;;;4.93;;
12925;SDS011;6529;50.566;9.774;2023-07-02T03:34:09;8.30;;;5.10;;
12925;SDS011;6529;50.566;9.774;2023-07-02T03:36:35;6.80;;;5.33;;
12925;SDS011;6529;50.566;9.774;2023-07-02T03:39:02;6.20;;;5.60;;
12925;SDS011;6529;50.566;9.774;2023-07-02T03:41:28;6.63;;;5.30;;
12925;SDS011;6529;50.566;9.774;2023-07-02T03:43:54;6.40;;;5.20;;
12925;SDS011;6529;50.566;9.774;2023-07-02T03:46:19;6.13;;;5.50;;
12925;SDS011;6529;50.566;9.774;2023-07-02T03:48:45;6.50;;;5.53;;
12925;SDS011;6529;50.566;9.774;2023-07-02T03:51:11;9.07;;;5.70;;
12925;SDS011;6529;50.566;9.774;2023-07-02T03:53:39;6.27;;;5.50;;
12925;SDS011;6529;50.566;9.774;2023-07-02T03:56:05;8.20;;;5.80;;
12925;SDS011;6529;50.566;9.774;2023-07-02T03:58:31;8.27;;;5.57;;
12925;SDS011;6529;50.566;9.774;2023-07-02T04:00:56;6.13;;;5.53;;
12925;SDS011;6529;50.566;9.774;2023-07-02T04:03:22;10.47;;;5.73;;
12925;SDS011;6529;50.566;9.774;2023-07-02T04:05:48;8.67;;;5.80;;
12925;SDS011;6529;50.566;9.774;2023-07-02T04:08:14;6.93;;;5.47;;
12925;SDS011;6529;50.566;9.774;2023-07-02T04:10:40;7.40;;;5.50;;
12925;SDS011;6529;50.566;9.774;2023-07-02T04:13:06;6.97;;;5.60;;
12925;SDS011;6529;50.566;9.774;2023-07-02T04:15:31;9.07;;;5.53;;
12925;SDS011;6529;50.566;9.774;2023-07-02T04:17:57;6.17;;;5.57;;
12925;SDS011;6529;50.566;9.774;2023-07-02T04:20:23;8.20;;;5.80;;
12925;SDS011;6529;50.566;9.774;2023-07-02T04:22:48;6.37;;;5.43;;
12925;SDS011;6529;50.566;9.774;2023-07-02T04:25:14;6.80;;;5.60;;
12925;SDS011;6529;50.566;9.774;2023-07-02T04:27:40;9.43;;;5.30;;
12925;SDS011;6529;50.566;9.774;2023-07-02T04:30:07;8.53;;;5.23;;
12925;SDS011;6529;50.566;9.774;2023-07-02T04:32:34;7.60;;;5.50;;
12925;SDS011;6529;50.566;9.774;2023-07-02T04:35:00;7.20;;;5.40;;
12925;SDS011;6529;50.566;9.774;2023-07-02T04:37:26;7.17;;;5.07;;
12925;SDS011;6529;50.566;9.774;2023-07-02T04:39:53;7.23;;;5.17;;
12925;SDS011;6529;50.566;9.774;2023-07-02T04:42:19;7.53;;;5.80;;
12925;SDS011;6529;50.566;9.774;2023-07-02T04:44:44;5.30;;;4.80;;
12925;SDS011;6529;50.566;9.774;2023-07-02T04:47:10;5.97;;;5.37;;
12925;SDS011;6529;50.566;9.774;2023-07-02T04:49:36;5.70;;;4.47;;
12925;SDS011;6529;50.566;9.774;2023-07-02T04:52:03;6.03;;;4.97;;
12925;SDS011;6529;50.566;9.774;2023-07-02T04:54:28;5.43;;;4.93;;
12925;SDS011;6529;50.566;9.774;2023-07-02T04:56:54;6.33;;;4.93;;
12925;SDS011;6529;50.566;9.774;2023-07-02T04:59:20;8.20;;;5.10;;
12925;SDS011;6529;50.566;9.774;2023-07-02T05:01:46;6.37;;;4.87;;
12925;SDS011;6529;50.566;9.774;2023-07-02T05:04:12;6.60;;;4.87;;
12925;SDS011;6529;50.566;9.774;2023-07-02T05:06:38;5.70;;;5.20;;
12925;SDS011;6529;50.566;9.774;2023-07-02T05:09:04;5.63;;;5.10;;
12925;SDS011;6529;50.566;9.774;2023-07-02T05:11:29;7.63;;;4.80;;
12925;SDS011;6529;50.566;9.774;2023-07-02T05:13:55;5.70;;;4.93;;
12925;SDS011;6529;50.566;9.774;2023-07-02T05:16:20;5.77;;;4.43;;
12925;SDS011;6529;50.566;9.774;2023-07-02T05:18:46;4.63;;;4.23;;
12925;SDS011;6529;50.566;9.774;2023-07-02T05:21:12;6.50;;;4.47;;
12925;SDS011;6529;50.566;9.774;2023-07-02T05:23:37;4.77;;;4.27;;
12925;SDS011;6529;50.566;9.774;2023-07-02T05:26:03;5.00;;;4.30;;
12925;SDS011;6529;50.566;9.774;2023-07-02T05:28:28;7.07;;;4.53;;
12925;SDS011;6529;50.566;9.774;2023-07-02T05:30:54;4.67;;;4.27;;
12925;SDS011;6529;50.566;9.774;2023-07-02T05:33:20;7.43;;;4.30;;
12925;SDS011;6529;50.566;9.774;2023-07-02T05:35:47;5.10;;;4.60;;
12925;SDS011;6529;50.566;9.774;2023-07-02T05:38:13;5.93;;;4.13;;
12925;SDS011;6529;50.566;9.774;2023-07-02T05:40:39;4.43;;;4.03;;
12925;SDS011;6529;50.566;9.774;2023-07-02T05:43:04;4.17;;;3.77;;
12925;SDS011;6529;50.566;9.774;2023-07-02T05:45:30;4.17;;;3.73;;
12925;SDS011;6529;50.566;9.774;2023-07-02T05:47:55;7.33;;;3.87;;
12925;SDS011;6529;50.566;9.774;2023-07-02T05:50:21;3.97;;;3.57;;
12925;SDS011;6529;50.566;9.774;2023-07-02T05:52:46;5.73;;;3.80;;
12925;SDS011;6529;50.566;9.774;2023-07-02T05:55:12;5.90;;;3.70;;
12925;SDS011;6529;50.566;9.774;2023-07-02T05:57:38;5.70;;;3.23;;
12925;SDS011;6529;50.566;9.774;2023-07-02T06:00:04;6.00;;;4.00;;
12925;SDS011;6529;50.566;9.774;2023-07-02T06:02:32;4.37;;;3.20;;
12925;SDS011;6529;50.566;9.774;2023-07-02T06:04:57;6.03;;;3.67;;
12925;SDS011;6529;50.566;9.774;2023-07-02T06:07:26;4.10;;;3.43;;
12925;SDS011;6529;50.566;9.774;2023-07-02T06:09:58;4.30;;;3.30;;
12925;SDS011;6529;50.566;9.774;2023-07-02T06:12:24;6.53;;;3.60;;
12925;SDS011;6529;50.566;9.774;2023-07-02T06:14:49;5.17;;;3.50;;
12925;SDS011;6529;50.566;9.774;2023-07-02T06:17:15;7.97;;;3.50;;
12925;SDS011;6529;50.566;9.774;2023-07-02T06:19:40;5.93;;;3.67;;
12925;SDS011;6529;50.566;9.774;2023-07-02T06:22:06;4.00;;;3.17;;
12925;SDS011;6529;50.566;9.774;2023-07-02T06:24:32;6.60;;;3.63;;
12925;SDS011;6529;50.566;9.774;2023-07-02T06:26:57;6.70;;;3.10;;
12925;SDS011;6529;50.566;9.774;2023-07-02T06:29:23;4.30;;;2.97;;
12925;SDS011;6529;50.566;9.774;2023-07-02T06:31:49;5.33;;;3.20;;
12925;SDS011;6529;50.566;9.774;2023-07-02T06:34:15;4.37;;;3.03;;
12925;SDS011;6529;50.566;9.774;2023-07-02T06:36:41;5.03;;;3.13;;
12925;SDS011;6529;50.566;9.774;2023-07-02T06:39:07;5.30;;;3.33;;
12925;SDS011;6529;50.566;9.774;2023-07-02T06:41:34;5.93;;;3.20;;
12925;SDS011;6529;50.566;9.774;2023-07-02T06:44:00;4.10;;;3.10;;
12925;SDS011;6529;50.566;9.774;2023-07-02T06:46:25;6.13;;;3.47;;
12925;SDS011;6529;50.566;9.774;2023-07-02T06:48:51;5.10;;;3.47;;
12925;SDS011;6529;50.566;9.774;2023-07-02T06:51:16;3.93;;;3.20;;
12925;SDS011;6529;50.566;9.774;2023-07-02T06:53:44;6.47;;;3.30;;
12925;SDS011;6529;50.566;9.774;2023-07-02T06:56:10;5.60;;;3.73;;
12925;SDS011;6529;50.566;9.774;2023-07-02T06:58:36;5.97;;;3.37;;
12925;SDS011;6529;50.566;9.774;2023-07-02T07:01:01;6.93;;;3.77;;
12925;SDS011;6529;50.566;9.774;2023-07-02T07:03:27;6.83;;;3.70;;
12925;SDS011;6529;50.566;9.774;2023-07-02T07:05:53;7.13;;;4.33;;
12925;SDS011;6529;50.566;9.774;2023-07-02T07:08:19;6.37;;;3.90;;
12925;SDS011;6529;50.566;9.774;2023-07-02T07:10:45;7.73;;;4.03;;
12925;SDS011;6529;50.566;9.774;2023-07-02T07:13:11;6.17;;;4.63;;
12925;SDS011;6529;50.566;9.774;2023-07-02T07:15:37;6.93;;;4.30;;
12925;SDS011;6529;50.566;9.774;2023-07-02T07:18:02;7.57;;;5.00;;
12925;SDS011;6529;50.566;9.774;2023-07-02T07:20:29;10.73;;;5.33;;
12925;SDS011;6529;50.566;9.774;2023-07-02T07:22:55;8.10;;;4.70;;
12925;SDS011;6529;50.566;9.774;2023-07-02T07:25:21;7.00;;;5.00;;
12925;SDS011;6529;50.566;9.774;2023-07-02T07:27:46;9.10;;;5.63;;
12925;SDS011;6529;50.566;9.774;2023-07-02T07:30:12;11.30;;;5.20;;
12925;SDS011;6529;50.566;9.774;2023-07-02T07:32:39;8.20;;;5.57;;
12925;SDS011;6529;50.566;9.774;2023-07-02T07:35:06;10.00;;;5.50;;
12925;SDS011;6529;50.566;9.774;2023-07-02T07:37:32;8.43;;;5.33;;
12925;SDS011;6529;50.566;9.774;2023-07-02T07:39:57;9.10;;;5.43;;
12925;SDS011;6529;50.566;9.774;2023-07-02T07:42:23;7.40;;;4.90;;
12925;SDS011;6529;50.566;9.774;2023-07-02T07:44:49;8.63;;;4.97;;
12925;SDS011;6529;50.566;9.774;2023-07-02T07:47:14;8.23;;;5.20;;
12925;SDS011;6529;50.566;9.774;2023-07-02T07:49:40;9.13;;;5.47;;
12925;SDS011;6529;50.566;9.774;2023-07-02T07:52:06;8.37;;;5.00;;
12925;SDS011;6529;50.566;9.774;2023-07-02T07:54:32;8.17;;;5.53;;
12925;SDS011;6529;50.566;9.774;2023-07-02T07:57:00;7.03;;;5.30;;
12925;SDS011;6529;50.566;9.774;2023-07-02T07:59:26;9.40;;;4.67;;
12925;SDS011;6529;50.566;9.774;2023-07-02T08:01:51;8.33;;;5.30;;
12925;SDS011;6529;50.566;9.774;2023-07-02T08:04:17;9.63;;;5.43;;
12925;SDS011;6529;50.566;9.774;2023-07-02T08:06:42;8.60;;;5.50;;
12925;SDS011;6529;50.566;9.774;2023-07-02T08:09:08;10.37;;;5.97;;
12925;SDS011;6529;50.566;9.774;2023-07-02T08:11:34;8.93;;;5.60;;
12925;SDS011;6529;50.566;9.774;2023-07-02T08:14:00;8.43;;;5.90;;
12925;SDS011;6529;50.566;9.774;2023-07-02T08:16:25;9.50;;;6.20;;
12925;SDS011;6529;50.566;9.774;2023-07-02T08:18:51;10.97;;;6.27;;
12925;SDS011;6529;50.566;9.774;2023-07-02T08:21:16;8.47;;;6.10;;
12925;SDS011;6529;50.566;9.774;2023-07-02T08:23:42;10.00;;;6.30;;
12925;SDS011;6529;50.566;9.774;2023-07-02T08:26:09;8.23;;;6.63;;
12925;SDS011;6529;50.566;9.774;2023-07-02T08:28:36;7.90;;;5.97;;
12925;SDS011;6529;50.566;9.774;2023-07-02T08:31:03;12.70;;;6.60;;
12925;SDS011;6529;50.566;9.774;2023-07-02T08:33:28;11.80;;;6.73;;
12925;SDS011;6529;50.566;9.774;2023-07-02T08:35:54;11.43;;;7.17;;
12925;SDS011;6529;50.566;9.774;2023-07-02T08:38:20;8.40;;;6.70;;
12925;SDS011;6529;50.566;9.774;2023-07-02T08:40:45;10.97;;;6.83;;
12925;SDS011;6529;50.566;9.774;2023-07-02T08:43:11;10.67;;;7.20;;
12925;SDS011;6529;50.566;9.774;2023-07-02T08:45:37;11.60;;;7.10;;
12925;SDS011;6529;50.566;9.774;2023-07-02T08:48:05;7.97;;;6.30;;
12925;SDS011;6529;50.566;9.774;2023-07-02T08:50:31;11.57;;;7.23;;
12925;SDS011;6529;50.566;9.774;2023-07-02T08:52:56;11.47;;;7.47;;
12925;SDS011;6529;50.566;9.774;2023-07-02T08:55:22;9.77;;;7.00;;
12925;SDS011;6529;50.566;9.774;2023-07-02T08:57:49;11.40;;;7.10;;
12925;SDS011;6529;50.566;9.774;2023-07-02T09:00:17;12.17;;;7.27;;
12925;SDS011;6529;50.566;9.774;2023-07-02T09:02:43;11.87;;;7.50;;
12925;SDS011;6529;50.566;9.774;2023-07-02T09:05:09;10.57;;;6.80;;
12925;SDS011;6529;50.566;9.774;2023-07-02T09:07:48;11.00;;;7.07;;
12925;SDS011;6529;50.566;9.774;2023-07-02T09:10:25;13.17;;;7.70;;
12925;SDS011;6529;50.566;9.774;2023-07-02T09:13:05;11.23;;;6.93;;
12925;SDS011;6529;50.566;9.774;2023-07-02T09:15:38;12.83;;;8.00;;
12925;SDS011;6529;50.566;9.774;2023-07-02T09:18:14;12.93;;;7.20;;
12925;SDS011;6529;50.566;9.774;2023-07-02T09:20:40;11.00;;;7.10;;
12925;SDS011;6529;50.566;9.774;2023-07-02T09:23:05;13.27;;;7.97;;
12925;SDS011;6529;50.566;9.774;2023-07-02T09:25:36;11.67;;;7.90;;
12925;SDS011;6529;50.566;9.774;2023-07-02T09:28:02;10.73;;;7.40;;
12925;SDS011;6529;50.566;9.774;2023-07-02T09:30:38;10.90;;;7.47;;
12925;SDS011;6529;50.566;9.774;2023-07-02T09:33:17;12.47;;;7.63;;
12925;SDS011;6529;50.566;9.774;2023-07-02T09:35:43;10.07;;;7.50;;
12925;SDS011;6529;50.566;9.774;2023-07-02T09:38:09;11.83;;;7.17;;
12925;SDS011;6529;50.566;9.774;2023-07-02T09:40:44;9.30;;;6.73;;
12925;SDS011;6529;50.566;9.774;2023-07-02T09:43:12;9.53;;;6.73;;
12925;SDS011;6529;50.566;9.774;2023-07-02T09:45:43;9.67;;;6.80;;
12925;SDS011;6529;50.566;9.774;2023-07-02T09:48:11;11.20;;;6.83;;
12925;SDS011;6529;50.566;9.774;2023-07-02T09:50:40;10.87;;;7.23;;
12925;SDS011;6529;50.566;9.774;2023-07-02T09:53:10;10.73;;;7.07;;
12925;SDS011;6529;50.566;9.774;2023-07-02T09:55:36;11.97;;;7.13;;
12925;SDS011;6529;50.566;9.774;2023-07-02T09:58:07;13.13;;;6.93;;
12925;SDS011;6529;50.566;9.774;2023-07-02T10:00:33;10.47;;;6.27;;
12925;SDS011;6529;50.566;9.774;2023-07-02T10:02:59;11.93;;;7.30;;
12925;SDS011;6529;50.566;9.774;2023-07-02T10:05:28;11.93;;;7.37;;
12925;SDS011;6529;50.566;9.774;2023-07-02T10:07:56;11.77;;;7.07;;
12925;SDS011;6529;50.566;9.774;2023-07-02T10:10:31;10.63;;;6.83;;
12925;SDS011;6529;50.566;9.774;2023-07-02T10:12:57;10.80;;;6.77;;
12925;SDS011;6529;50.566;9.774;2023-07-02T10:15:24;11.90;;;6.80;;
12925;SDS011;6529;50.566;9.774;2023-07-02T10:17:54;11.87;;;7.17;;
12925;SDS011;6529;50.566;9.774;2023-07-02T10:20:31;10.93;;;6.83;;
12925;SDS011;6529;50.566;9.774;2023-07-02T10:23:01;9.33;;;6.57;;
12925;SDS011;6529;50.566;9.774;2023-07-02T10:25:28;12.60;;;6.77;;
12925;SDS011;6529;50.566;9.774;2023-07-02T10:27:55;10.00;;;6.57;;
12925;SDS011;6529;50.566;9.774;2023-07-02T10:30:30;11.57;;;6.60;;
12925;SDS011;6529;50.566;9.774;2023-07-02T10:33:11;11.00;;;6.50;;
12925;SDS011;6529;50.566;9.774;2023-07-02T10:35:37;9.77;;;6.30;;
12925;SDS011;6529;50.566;9.774;2023-07-02T10:38:04;10.93;;;6.90;;
12925;SDS011;6529;50.566;9.774;2023-07-02T10:40:31;9.27;;;6.65;;
12925;SDS011;6529;50.566;9.774;2023-07-02T10:42:58;9.27;;;6.50;;
12925;SDS011;6529;50.566;9.774;2023-07-02T10:45:30;10.25;;;6.38;;
12925;SDS011;6529;50.566;9.774;2023-07-02T10:47:57;8.05;;;6.35;;
12925;SDS011;6529;50.566;9.774;2023-07-02T10:50:23;8.75;;;6.00;;
12925;SDS011;6529;50.566;9.774;2023-07-02T10:52:49;7.78;;;5.95;;
12925;SDS011;6529;50.566;9.774;2023-07-02T10:55:21;8.52;;;5.63;;
12925;SDS011;6529;50.566;9.774;2023-07-02T10:57:48;9.20;;;6.18;;
12925;SDS011;6529;50.566;9.774;2023-07-02T11:00:17;9.98;;;6.18;;
12925;SDS011;6529;50.566;9.774;2023-07-02T11:02:43;10.77;;;6.78;;
12925;SDS011;6529;50.566;9.774;2023-07-02T11:05:09;10.57;;;6.80;;
12925;SDS011;6529;50.566;9.774;2023-07-02T11:07:39;9.73;;;6.50;;
12925;SDS011;6529;50.566;9.774;2023-07-02T11:10:05;9.15;;;6.43;;
12925;SDS011;6529;50.566;9.774;2023-07-02T11:12:32;12.38;;;6.35;;
12925;SDS011;6529;50.566;9.774;2023-07-02T11:15:11;9.95;;;6.80;;
12925;SDS011;6529;50.566;9.774;2023-07-02T11:17:38;10.43;;;5.78;;
12925;SDS011;6529;50.566;9.774;2023-07-02T11:20:07;8.30;;;5.85;;
12925;SDS011;6529;50.566;9.774;2023-07-02T11:22:34;10.07;;;6.13;;
12925;SDS011;6529;50.566;9.774;2023-07-02T11:25:16;6.95;;;5.03;;
12925;SDS011;6529;50.566;9.774;2023-07-02T11:27:46;8.35;;;5.32;;
12925;SDS011;6529;50.566;9.774;2023-07-02T11:30:12;7.85;;;5.95;;
12925;SDS011;6529;50.566;9.774;2023-07-02T11:35:14;7.60;;;5.55;;
12925;SDS011;6529;50.566;9.774;2023-07-02T11:37:41;7.53;;;5.70;;
12925;SDS011;6529;50.566;9.774;2023-07-02T11:40:07;8.68;;;5.55;;
12925;SDS011;6529;50.566;9.774;2023-07-02T11:42:33;8.57;;;6.00;;
12925;SDS011;6529;50.566;9.774;2023-07-02T11:44:59;8.55;;;5.40;;
12925;SDS011;6529;50.566;9.774;2023-07-02T11:47:24;9.98;;;5.93;;
12925;SDS011;6529;50.566;9.774;2023-07-02T11:49:52;8.23;;;5.35;;
12925;SDS011;6529;50.566;9.774;2023-07-02T11:52:18;10.68;;;6.13;;
12925;SDS011;6529;50.566;9.774;2023-07-02T11:54:43;10.00;;;5.85;;
12925;SDS011;6529;50.566;9.774;2023-07-02T11:57:09;8.80;;;5.80;;
12925;SDS011;6529;50.566;9.774;2023-07-02T11:59:35;8.20;;;5.55;;
12925;SDS011;6529;50.566;9.774;2023-07-02T12:02:01;7.70;;;5.50;;
12925;SDS011;6529;50.566;9.774;2023-07-02T12:04:27;6.72;;;5.43;;
12925;SDS011;6529;50.566;9.774;2023-07-02T12:06:52;7.70;;;5.95;;
12925;SDS011;6529;50.566;9.774;2023-07-02T12:09:18;9.10;;;5.97;;
12925;SDS011;6529;50.566;9.774;2023-07-02T12:11:44;8.27;;;5.75;;
12925;SDS011;6529;50.566;9.774;2023-07-02T12:14:10;8.88;;;5.72;;
12925;SDS011;6529;50.566;9.774;2023-07-02T12:16:37;10.07;;;6.03;;
12925;SDS011;6529;50.566;9.774;2023-07-02T12:19:02;8.30;;;5.90;;
12925;SDS011;6529;50.566;9.774;2023-07-02T12:21:28;8.55;;;6.00;;
12925;SDS011;6529;50.566;9.774;2023-07-02T12:23:54;11.15;;;6.13;;
12925;SDS011;6529;50.566;9.774;2023-07-02T12:26:19;9.25;;;5.95;;
12925;SDS011;6529;50.566;9.774;2023-07-02T12:28:45;8.77;;;6.28;;
12925;SDS011;6529;50.566;9.774;2023-07-02T12:31:10;8.25;;;5.80;;
12925;SDS011;6529;50.566;9.774;2023-07-02T12:33:37;8.77;;;6.40;;
12925;SDS011;6529;50.566;9.774;2023-07-02T12:36:03;9.07;;;6.20;;
12925;SDS011;6529;50.566;9.774;2023-07-02T12:38:29;8.13;;;5.68;;
12925;SDS011;6529;50.566;9.774;2023-07-02T12:40:55;8.77;;;6.22;;
12925;SDS011;6529;50.566;9.774;2023-07-02T12:43:20;9.48;;;6.13;;
12925;SDS011;6529;50.566;9.774;2023-07-02T12:45:46;10.15;;;6.03;;
12925;SDS011;6529;50.566;9.774;2023-07-02T12:48:12;7.00;;;5.35;;
12925;SDS011;6529;50.566;9.774;2023-07-02T12:50:38;9.82;;;5.90;;
12925;SDS011;6529;50.566;9.774;2023-07-02T12:53:04;9.10;;;6.07;;
12925;SDS011;6529;50.566;9.774;2023-07-02T12:55:30;8.80;;;6.25;;
12925;SDS011;6529;50.566;9.774;2023-07-02T12:57:55;9.82;;;6.65;;
12925;SDS011;6529;50.566;9.774;2023-07-02T13:00:21;7.97;;;5.80;;
12925;SDS011;6529;50.566;9.774;2023-07-02T13:02:47;9.48;;;6.60;;
12925;SDS011;6529;50.566;9.774;2023-07-02T13:05:13;9.32;;;6.22;;
12925;SDS011;6529;50.566;9.774;2023-07-02T13:07:39;8.18;;;5.97;;
12925;SDS011;6529;50.566;9.774;2023-07-02T13:10:04;9.32;;;6.50;;
12925;SDS011;6529;50.566;9.774;2023-07-02T13:12:31;9.15;;;6.38;;
12925;SDS011;6529;50.566;9.774;2023-07-02T13:14:56;9.48;;;6.25;;
12925;SDS011;6529;50.566;9.774;2023-07-02T13:17:22;8.88;;;6.18;;
12925;SDS011;6529;50.566;9.774;2023-07-02T13:19:47;9.73;;;5.95;;
12925;SDS011;6529;50.566;9.774;2023-07-02T13:22:14;8.82;;;6.25;;
12925;SDS011;6529;50.566;9.774;2023-07-02T13:24:39;10.23;;;6.63;;
12925;SDS011;6529;50.566;9.774;2023-07-02T13:27:07;7.13;;;5.78;;
12925;SDS011;6529;50.566;9.774;2023-07-02T13:29:37;9.30;;;5.97;;
12925;SDS011;6529;50.566;9.774;2023-07-02T13:32:03;7.90;;;5.35;;
12925;SDS011;6529;50.566;9.774;2023-07-02T13:34:29;8.95;;;6.03;;
12925;SDS011;6529;50.566;9.774;2023-07-02T13:36:54;11.30;;;6.18;;
12925;SDS011;6529;50.566;9.774;2023-07-02T13:39:20;8.27;;;5.88;;
12925;SDS011;6529;50.566;9.774;2023-07-02T13:41:46;8.40;;;6.25;;
12925;SDS011;6529;50.566;9.774;2023-07-02T13:44:11;8.10;;;6.00;;
12925;SDS011;6529;50.566;9.774;2023-07-02T13:46:37;8.35;;;5.80;;
12925;SDS011;6529;50.566;9.774;2023-07-02T13:49:02;8.25;;;5.40;;
12925;SDS011;6529;50.566;9.774;2023-07-02T13:51:28;8.95;;;5.55;;
12925;SDS011;6529;50.566;9.774;2023-07-02T13:53:53;10.40;;;6.25;;
12925;SDS011;6529;50.566;9.774;2023-07-02T13:56:19;10.10;;;6.15;;
12925;SDS011;6529;50.566;9.774;2023-07-02T14:01:25;8.30;;;6.10;;
12925;SDS011;6529;50.566;9.774;2023-07-02T14:03:51;7.78;;;5.82;;
12925;SDS011;6529;50.566;9.774;2023-07-02T14:06:18;8.82;;;6.00;;
12925;SDS011;6529;50.566;9.774;2023-07-02T14:08:44;8.80;;;6.43;;
12925;SDS011;6529;50.566;9.774;2023-07-02T14:11:10;9.48;;;6.63;;
12925;SDS011;6529;50.566;9.774;2023-07-02T14:13:35;9.05;;;6.57;;
12925;SDS011;6529;50.566;9.774;2023-07-02T14:16:01;9.63;;;6.60;;
12925;SDS011;6529;50.566;9.774;2023-07-02T14:18:27;11.40;;;6.55;;
12925;SDS011;6529;50.566;9.774;2023-07-02T14:20:52;10.65;;;6.93;;
12925;SDS011;6529;50.566;9.774;2023-07-02T14:23:18;10.65;;;6.80;;
12925;SDS011;6529;50.566;9.774;2023-07-02T14:25:43;8.73;;;6.65;;
12925;SDS011;6529;50.566;9.774;2023-07-02T14:28:09;9.70;;;6.90;;
12925;SDS011;6529;50.566;9.774;2023-07-02T14:30:35;10.60;;;6.93;;
12925;SDS011;6529;50.566;9.774;2023-07-02T14:33:01;11.57;;;7.22;;
12925;SDS011;6529;50.566;9.774;2023-07-02T14:35:27;9.90;;;6.93;;
12925;SDS011;6529;50.566;9.774;2023-07-02T14:37:54;9.43;;;7.20;;
12925;SDS011;6529;50.566;9.774;2023-07-02T14:40:20;9.65;;;6.63;;
12925;SDS011;6529;50.566;9.774;2023-07-02T14:42:46;11.63;;;7.05;;
12925;SDS011;6529;50.566;9.774;2023-07-02T14:45:11;11.02;;;7.13;;
12925;SDS011;6529;50.566;9.774;2023-07-02T14:47:37;10.55;;;7.55;;
12925;SDS011;6529;50.566;9.774;2023-07-02T14:50:02;10.15;;;7.47;;
12925;SDS011;6529;50.566;9.774;2023-07-02T14:52:29;9.70;;;6.97;;
12925;SDS011;6529;50.566;9.774;2023-07-02T14:54:54;13.20;;;6.57;;
12925;SDS011;6529;50.566;9.774;2023-07-02T14:57:20;9.02;;;6.50;;
12925;SDS011;6529;50.566;9.774;2023-07-02T14:59:46;9.73;;;6.85;;